Time;durP1;ratioP1;P1;durP2;ratioP2;P2;SDS_P1;SDS_P2;PMS_P1;PMS_P2;Temp;Humidity;BMP_temperature;BMP_pressure;BME280_temperature;BME280_humidity;BME280_pressure;Samples;Min_cycle;Max_cycle;Signal;HPM_P1;HPM_P2
2021/08/15 00:00:15;;;;;;;3.93;3.50;;;25.50;58.30;;;;;;5114934;27;20251;-70
2021/08/15 00:02:44;;;;;;;4.20;3.80;;;25.50;58.30;;;;;;5112033;27;20188;-70
2021/08/15 00:05:12;;;;;;;4.17;3.77;;;25.40;58.30;;;;;;5111014;27;20200;-70
2021/08/15 00:07:39;;;;;;;4.00;3.60;;;25.40;58.30;;;;;;5110686;28;20243;-70
2021/08/15 00:10:07;;;;;;;3.97;3.60;;;25.40;58.40;;;;;;5111864;27;20202;-71
2021/08/15 00:12:36;;;;;;;3.90;3.50;;;25.40;58.40;;;;;;5099638;28;20226;-70
2021/08/15 00:15:04;;;;;;;4.77;3.83;;;25.40;58.50;;;;;;5095069;28;20262;-70
2021/08/15 00:17:31;;;;;;;3.77;3.43;;;25.40;58.50;;;;;;5110861;28;20207;-70
2021/08/15 00:19:58;;;;;;;5.83;3.93;;;25.40;58.50;;;;;;5112577;27;20207;-70
2021/08/15 00:22:25;;;;;;;4.03;3.60;;;25.30;59.10;;;;;;5112665;27;20219;-71
2021/08/15 00:24:53;;;;;;;4.17;3.80;;;25.40;58.60;;;;;;5111852;27;20212;-70
2021/08/15 00:27:20;;;;;;;4.40;3.90;;;25.30;58.60;;;;;;5110585;27;20215;-70
2021/08/15 00:29:46;;;;;;;3.70;3.40;;;25.30;58.60;;;;;;5111391;28;20200;-70
2021/08/15 00:32:13;;;;;;;4.00;3.60;;;25.30;58.60;;;;;;5114439;27;21160;-70
2021/08/15 00:34:40;;;;;;;3.70;3.40;;;25.30;58.60;;;;;;5093440;28;20228;-70
2021/08/15 00:37:07;;;;;;;5.17;3.90;;;25.30;58.60;;;;;;5093253;27;20217;-70
2021/08/15 00:39:34;;;;;;;4.10;3.70;;;25.30;58.60;;;;;;5110181;28;20204;-70
2021/08/15 00:42:00;;;;;;;3.97;3.53;;;25.30;58.50;;;;;;5111776;27;20204;-70
2021/08/15 00:44:27;;;;;;;4.37;3.50;;;25.20;58.50;;;;;;5110959;28;20200;-70
2021/08/15 00:46:55;;;;;;;4.67;4.27;;;25.30;58.60;;;;;;5109857;27;20200;-70
2021/08/15 00:49:22;;;;;;;4.07;3.67;;;25.30;58.50;;;;;;5109701;28;20207;-70
2021/08/15 00:51:48;;;;;;;4.30;3.90;;;25.30;58.60;;;;;;5092720;28;20208;-71
2021/08/15 00:54:20;;;;;;;5.40;3.70;;;25.20;58.60;;;;;;5111365;28;20196;-71
2021/08/15 00:56:54;;;;;;;4.23;3.83;;;25.20;58.60;;;;;;5112067;27;20410;-70
2021/08/15 00:59:21;;;;;;;4.60;4.20;;;25.20;58.60;;;;;;5092151;28;20191;-70
2021/08/15 01:01:54;;;;;;;4.63;4.23;;;25.20;58.70;;;;;;5110753;27;20211;-70
2021/08/15 01:04:23;;;;;;;4.63;4.07;;;25.20;58.70;;;;;;5111206;28;20211;-70
2021/08/15 01:06:51;;;;;;;4.23;3.83;;;25.20;58.70;;;;;;5110250;27;20200;-70
2021/08/15 01:09:23;;;;;;;4.07;3.70;;;25.20;58.70;;;;;;5110538;27;20208;-70
2021/08/15 01:11:49;;;;;;;4.67;4.13;;;25.10;58.60;;;;;;5109316;28;20220;-70
2021/08/15 01:14:16;;;;;;;6.40;4.33;;;25.20;58.70;;;;;;5110230;27;20246;-70
2021/08/15 01:16:44;;;;;;;4.83;4.30;;;25.20;58.80;;;;;;5110265;28;20493;-70
2021/08/15 01:19:12;;;;;;;4.60;4.10;;;25.10;58.70;;;;;;5111688;27;20189;-70
2021/08/15 01:21:44;;;;;;;4.77;4.30;;;25.10;58.60;;;;;;5110443;28;20197;-70
2021/08/15 01:24:12;;;;;;;4.97;4.47;;;25.10;58.60;;;;;;5110305;28;20199;-71
2021/08/15 01:26:43;;;;;;;5.17;4.47;;;25.10;58.60;;;;;;5110924;28;20279;-71
2021/08/15 01:29:10;;;;;;;4.90;4.40;;;25.10;58.60;;;;;;5110063;28;20547;-71
2021/08/15 01:31:37;;;;;;;5.13;4.73;;;25.10;58.50;;;;;;5108624;28;20189;-71
2021/08/15 01:34:04;;;;;;;5.03;4.53;;;25.10;58.40;;;;;;5110465;27;20200;-71
2021/08/15 01:36:31;;;;;;;5.40;4.90;;;25.10;58.40;;;;;;5108750;28;20637;-71
2021/08/15 01:38:57;;;;;;;6.80;4.90;;;25.10;58.40;;;;;;5111342;27;20523;-71
2021/08/15 01:41:24;;;;;;;4.53;4.13;;;25.10;58.40;;;;;;5110473;28;20214;-71
2021/08/15 01:43:57;;;;;;;5.67;4.77;;;25.10;58.40;;;;;;5110965;28;20223;-71
2021/08/15 01:46:27;;;;;;;5.77;4.50;;;25.10;58.40;;;;;;5092567;28;20564;-71
2021/08/15 01:48:55;;;;;;;4.57;4.17;;;25.10;58.50;;;;;;5107447;28;20200;-71
2021/08/15 01:51:22;;;;;;;5.17;4.67;;;25.10;58.40;;;;;;5090983;28;20200;-71
2021/08/15 01:53:51;;;;;;;5.50;5.00;;;25.10;58.50;;;;;;5109801;28;20208;-71
2021/08/15 01:56:18;;;;;;;5.43;4.80;;;25.00;58.50;;;;;;5108385;28;20238;-71
2021/08/15 01:58:45;;;;;;;4.83;4.40;;;25.00;58.50;;;;;;5091798;28;20196;-71
2021/08/15 02:01:16;;;;;;;5.33;4.83;;;25.10;58.50;;;;;;5110457;28;20790;-71
2021/08/15 02:03:46;;;;;;;6.07;5.00;;;25.00;58.50;;;;;;5110093;28;20228;-71
2021/08/15 02:06:14;;;;;;;5.23;4.73;;;25.00;58.40;;;;;;5110502;28;20199;-71
2021/08/15 02:08:41;;;;;;;5.30;4.87;;;25.00;58.40;;;;;;5092412;28;20188;-71
2021/08/15 02:11:08;;;;;;;5.40;4.90;;;25.00;58.50;;;;;;5110548;28;20200;-71
2021/08/15 02:13:34;;;;;;;5.67;5.13;;;25.00;58.50;;;;;;5109600;28;20224;-71
2021/08/15 02:16:05;;;;;;;5.83;5.23;;;25.00;58.50;;;;;;5109636;28;20246;-71
2021/08/15 02:18:34;;;;;;;5.50;5.00;;;25.00;58.50;;;;;;5109698;28;20180;-71
2021/08/15 02:21:05;;;;;;;5.23;4.73;;;25.00;58.50;;;;;;5110064;28;20231;-71
2021/08/15 02:23:34;;;;;;;5.50;5.00;;;25.00;58.60;;;;;;5094763;28;20234;-71
2021/08/15 02:26:05;;;;;;;6.30;5.80;;;25.00;58.60;;;;;;5077633;28;20249;-71
2021/08/15 02:28:35;;;;;;;5.13;4.63;;;25.00;58.70;;;;;;5110937;28;20231;-71
2021/08/15 02:31:06;;;;;;;5.60;5.10;;;25.00;58.60;;;;;;5100471;28;20508;-72
2021/08/15 02:33:37;;;;;;;5.57;5.07;;;25.00;58.60;;;;;;5109758;27;20220;-72
2021/08/15 02:36:06;;;;;;;5.63;5.03;;;25.00;58.60;;;;;;5117110;28;20189;-72
2021/08/15 02:38:35;;;;;;;5.63;5.17;;;24.90;58.50;;;;;;5098310;28;20210;-72
2021/08/15 02:41:05;;;;;;;5.13;4.70;;;25.00;58.60;;;;;;5116264;28;20204;-72
2021/08/15 02:43:36;;;;;;;5.67;5.17;;;24.90;58.60;;;;;;5122276;27;20214;-72
2021/08/15 02:46:11;;;;;;;5.63;5.13;;;24.90;58.50;;;;;;5115646;28;20207;-72
2021/08/15 02:48:43;;;;;;;5.63;5.07;;;24.90;58.50;;;;;;5114770;27;20203;-72
2021/08/15 02:51:15;;;;;;;5.60;5.10;;;24.90;58.50;;;;;;5114547;28;20200;-72
2021/08/15 02:53:43;;;;;;;5.07;4.67;;;24.90;58.50;;;;;;5112862;27;20220;-72
2021/08/15 02:56:15;;;;;;;5.73;5.20;;;24.90;58.60;;;;;;5113191;28;20188;-72
2021/08/15 02:58:43;;;;;;;5.37;4.87;;;24.90;58.50;;;;;;5096543;28;20200;-72
2021/08/15 03:01:14;;;;;;;5.70;5.20;;;24.90;58.50;;;;;;5114486;27;20295;-72
2021/08/15 03:03:45;;;;;;;5.70;5.27;;;24.90;58.60;;;;;;5109729;28;20216;-71
2021/08/15 03:06:15;;;;;;;5.67;5.07;;;24.90;58.60;;;;;;5114750;27;20649;-72
2021/08/15 03:08:47;;;;;;;5.40;4.90;;;24.90;58.50;;;;;;5115175;27;20199;-72
2021/08/15 03:11:19;;;;;;;6.17;5.60;;;24.90;58.50;;;;;;5114336;28;20241;-72
2021/08/15 03:13:50;;;;;;;5.93;5.00;;;24.90;58.50;;;;;;5113522;27;20585;-72
2021/08/15 03:16:19;;;;;;;5.70;5.20;;;24.90;58.50;;;;;;5113939;27;20533;-72
2021/08/15 03:18:48;;;;;;;5.40;4.90;;;24.90;58.50;;;;;;5095234;28;20536;-72
2021/08/15 03:21:18;;;;;;;5.87;5.30;;;24.90;58.60;;;;;;5113024;27;20203;-71
2021/08/15 03:24:10;;;;;;;5.50;5.00;;;24.90;58.50;;;;;;5094275;27;20812;-72
2021/08/15 03:26:46;;;;;;;5.67;5.17;;;24.90;58.40;;;;;;5110523;27;20283;-71
2021/08/15 03:29:19;;;;;;;5.67;5.17;;;24.90;58.40;;;;;;5105757;28;20196;-71
2021/08/15 03:31:50;;;;;;;6.20;5.20;;;24.90;58.40;;;;;;5111250;27;20254;-71
2021/08/15 03:34:20;;;;;;;5.50;5.00;;;24.90;58.40;;;;;;5112353;28;20225;-71
2021/08/15 03:36:53;;;;;;;5.77;5.33;;;24.80;58.30;;;;;;5092527;28;20579;-71
2021/08/15 03:39:29;;;;;;;5.07;4.67;;;24.80;58.30;;;;;;5096443;27;20208;-71
2021/08/15 03:42:02;;;;;;;5.20;4.70;;;24.80;58.30;;;;;;5087455;27;20584;-71
2021/08/15 03:44:33;;;;;;;5.00;4.60;;;24.80;58.30;;;;;;5066548;28;20261;-71
2021/08/15 03:47:01;;;;;;;4.83;4.43;;;24.80;58.30;;;;;;5078156;28;20626;-71
2021/08/15 03:49:33;;;;;;;5.03;4.63;;;24.80;58.30;;;;;;5108807;27;20223;-71
2021/08/15 03:52:06;;;;;;;5.30;4.80;;;24.80;58.30;;;;;;5112081;28;20196;-71
2021/08/15 03:54:38;;;;;;;5.80;5.30;;;24.80;58.30;;;;;;5113451;27;20195;-71
2021/08/15 03:57:07;;;;;;;5.90;5.27;;;24.80;58.20;;;;;;5110608;28;20200;-71
2021/08/15 03:59:38;;;;;;;5.40;4.90;;;24.80;58.20;;;;;;5094885;28;20197;-71
2021/08/15 04:02:07;;;;;;;5.53;5.03;;;24.80;58.30;;;;;;5077946;28;20661;-71
2021/08/15 04:04:39;;;;;;;5.67;5.17;;;24.80;58.30;;;;;;5111715;27;20200;-71
2021/08/15 04:07:11;;;;;;;5.27;4.80;;;24.80;58.30;;;;;;5112280;27;20231;-71
2021/08/15 04:09:41;;;;;;;5.13;4.63;;;24.80;58.30;;;;;;5093282;28;20193;-71
2021/08/15 04:12:11;;;;;;;5.63;5.13;;;24.80;58.30;;;;;;5100261;28;20235;-70
2021/08/15 04:14:40;;;;;;;5.27;4.70;;;24.80;58.30;;;;;;5111893;27;20622;-70
2021/08/15 04:17:11;;;;;;;5.40;4.90;;;24.80;58.30;;;;;;5112809;27;20277;-69
2021/08/15 04:19:42;;;;;;;5.67;5.17;;;24.70;58.20;;;;;;5109805;28;20703;-69
2021/08/15 04:22:14;;;;;;;5.10;4.60;;;24.70;58.20;;;;;;5094919;27;20200;-70
2021/08/15 04:24:42;;;;;;;5.03;4.53;;;24.80;58.30;;;;;;5110660;28;20695;-70
2021/08/15 04:27:12;;;;;;;4.97;4.57;;;24.70;58.20;;;;;;5112614;27;20585;-70
2021/08/15 04:29:40;;;;;;;5.60;5.00;;;24.80;58.80;;;;;;5111006;28;20190;-70
2021/08/15 04:32:11;;;;;;;5.27;4.77;;;24.70;58.10;;;;;;5113617;27;20289;-70
2021/08/15 04:34:39;;;;;;;5.57;4.97;;;24.80;58.10;;;;;;5111176;28;20200;-70
2021/08/15 04:37:08;;;;;;;4.73;4.33;;;24.70;58.10;;;;;;5110308;28;20614;-70
2021/08/15 04:39:39;;;;;;;5.10;4.70;;;24.70;58.10;;;;;;5110783;28;20301;-70
2021/08/15 04:42:11;;;;;;;5.10;4.70;;;24.70;58.10;;;;;;5111492;27;20204;-70
2021/08/15 04:44:39;;;;;;;5.40;4.90;;;24.70;58.10;;;;;;5075849;28;20196;-70
2021/08/15 04:47:07;;;;;;;5.47;4.93;;;24.70;58.10;;;;;;5111269;27;20858;-70
2021/08/15 04:49:36;;;;;;;5.03;4.63;;;24.70;58.10;;;;;;5092881;28;20200;-70
2021/08/15 04:52:21;;;;;;;5.27;4.77;;;24.80;58.10;;;;;;5094215;28;20229;-69
2021/08/15 04:54:49;;;;;;;5.20;4.70;;;24.70;58.10;;;;;;5108232;27;20653;-68
2021/08/15 04:57:21;;;;;;;5.47;4.97;;;24.70;58.10;;;;;;5114146;27;20194;-71
2021/08/15 04:59:49;;;;;;;4.93;4.30;;;24.70;58.00;;;;;;5109821;27;20189;-71
2021/08/15 05:02:24;;;;;;;5.03;4.63;;;24.70;58.10;;;;;;5091235;28;20212;-70
2021/08/15 05:04:53;;;;;;;5.43;4.93;;;24.70;58.10;;;;;;5112782;27;20339;-70
2021/08/15 05:07:22;;;;;;;5.13;4.63;;;24.70;58.10;;;;;;5109265;28;20206;-70
2021/08/15 05:09:51;;;;;;;6.77;5.20;;;24.70;58.10;;;;;;5109805;27;20191;-69
2021/08/15 05:12:20;;;;;;;5.30;4.43;;;24.70;58.10;;;;;;5109957;27;20192;-69
2021/08/15 05:14:48;;;;;;;4.63;4.23;;;24.70;58.10;;;;;;5109894;28;21037;-69
2021/08/15 05:17:16;;;;;;;4.63;4.23;;;24.70;58.10;;;;;;5109687;28;20202;-69
2021/08/15 05:19:58;;;;;;;4.80;4.40;;;24.70;58.10;;;;;;5109843;27;20279;-69
2021/08/15 05:22:31;;;;;;;5.47;4.90;;;24.70;58.10;;;;;;5076528;28;20351;-70
2021/08/15 05:24:59;;;;;;;6.27;4.90;;;24.70;58.10;;;;;;5108124;27;20188;-70
2021/08/15 05:27:30;;;;;;;5.10;4.60;;;24.70;58.10;;;;;;5091951;28;20653;-68
2021/08/15 05:30:01;;;;;;;5.47;4.50;;;24.70;58.10;;;;;;5110434;28;20196;-68
2021/08/15 05:32:42;;;;;;;5.10;4.60;;;24.70;58.10;;;;;;5119305;27;20274;-71
2021/08/15 05:35:11;;;;;;;4.50;4.10;;;24.70;58.10;;;;;;5110179;28;20199;-69
2021/08/15 05:37:45;;;;;;;5.17;4.67;;;24.70;58.10;;;;;;5075367;28;20189;-68
2021/08/15 05:40:17;;;;;;;4.63;4.23;;;24.70;58.10;;;;;;5110794;28;20199;-69
2021/08/15 05:42:48;;;;;;;5.00;4.60;;;24.70;58.10;;;;;;5092692;28;20189;-70
2021/08/15 05:45:19;;;;;;;5.60;4.80;;;24.70;58.10;;;;;;5105073;28;20193;-70
2021/08/15 05:47:49;;;;;;;7.33;4.80;;;24.70;58.70;;;;;;5078405;28;20283;-70
2021/08/15 05:50:21;;;;;;;5.63;4.70;;;24.70;58.10;;;;;;5111117;28;20818;-70
2021/08/15 05:52:53;;;;;;;4.70;4.30;;;24.70;58.10;;;;;;5111066;28;20196;-70
2021/08/15 05:55:23;;;;;;;6.47;4.83;;;24.70;58.10;;;;;;5117018;28;20262;-70
2021/08/15 05:57:53;;;;;;;5.27;4.67;;;24.70;58.10;;;;;;5110459;28;20192;-70
2021/08/15 06:00:25;;;;;;;5.50;4.57;;;24.70;58.10;;;;;;5109798;28;20223;-70
2021/08/15 06:02:57;;;;;;;4.90;4.43;;;24.70;58.10;;;;;;5111520;28;20741;-70
2021/08/15 06:05:27;;;;;;;5.37;4.87;;;24.70;58.10;;;;;;5116691;27;20204;-70
2021/08/15 06:07:59;;;;;;;4.93;4.53;;;24.70;58.10;;;;;;5114907;27;20188;-70
2021/08/15 06:10:30;;;;;;;4.67;4.27;;;24.70;58.10;;;;;;5124609;27;20197;-70
2021/08/15 06:13:01;;;;;;;5.17;4.67;;;24.70;58.10;;;;;;5122795;27;20231;-70
2021/08/15 06:15:33;;;;;;;5.30;4.47;;;24.70;58.10;;;;;;5121172;27;20632;-70
2021/08/15 06:18:06;;;;;;;5.13;4.67;;;24.70;58.10;;;;;;5122169;27;20212;-70
2021/08/15 06:20:34;;;;;;;5.80;4.67;;;24.70;58.10;;;;;;5119275;27;20318;-69
2021/08/15 06:23:03;;;;;;;6.27;4.60;;;24.70;58.00;;;;;;5104258;27;20188;-68
2021/08/15 06:25:45;;;;;;;5.73;5.13;;;24.70;58.10;;;;;;5098219;28;20284;-69
2021/08/15 06:28:15;;;;;;;5.30;4.80;;;24.70;58.10;;;;;;5120983;27;20195;-70
2021/08/15 06:30:43;;;;;;;5.17;4.60;;;24.70;58.00;;;;;;5115798;27;20273;-69
2021/08/15 06:33:19;;;;;;;5.50;4.90;;;24.70;58.10;;;;;;5106469;28;20227;-68
2021/08/15 06:35:52;;;;;;;5.57;5.00;;;24.70;58.10;;;;;;5099517;27;20590;-69
2021/08/15 06:38:23;;;;;;;4.93;4.53;;;24.70;58.00;;;;;;5114891;27;20200;-69
2021/08/15 06:40:57;;;;;;;4.73;4.13;;;24.70;58.10;;;;;;5122392;27;20210;-68
2021/08/15 06:43:30;;;;;;;4.53;4.13;;;24.70;58.10;;;;;;5116904;27;20193;-69
2021/08/15 06:46:00;;;;;;;5.27;4.67;;;24.70;58.00;;;;;;5112797;28;20192;-69
2021/08/15 06:48:29;;;;;;;5.00;4.33;;;24.70;58.10;;;;;;5095635;27;20203;-69
2021/08/15 06:50:59;;;;;;;4.97;4.47;;;24.70;58.00;;;;;;5107438;27;20646;-71
2021/08/15 06:53:29;;;;;;;4.87;4.40;;;24.70;58.00;;;;;;5110680;27;20227;-70
2021/08/15 06:55:59;;;;;;;4.80;4.03;;;24.70;58.10;;;;;;5101097;27;20195;-71
2021/08/15 06:58:27;;;;;;;5.07;4.57;;;24.70;58.10;;;;;;5097087;28;20210;-71
2021/08/15 07:00:59;;;;;;;5.33;4.60;;;24.70;58.10;;;;;;5120058;27;20201;-70
2021/08/15 07:03:29;;;;;;;5.03;4.53;;;24.70;58.10;;;;;;5113825;27;20302;-68
2021/08/15 07:05:58;;;;;;;5.03;4.40;;;24.70;58.10;;;;;;5119559;27;20218;-70
2021/08/15 07:08:28;;;;;;;8.47;5.97;;;24.70;58.10;;;;;;5084091;28;20243;-76
2021/08/15 07:11:03;;;;;;;9.13;6.63;;;24.70;58.00;;;;;;5125312;27;20196;-74
2021/08/15 07:13:33;;;;;;;7.30;6.50;;;24.70;57.80;;;;;;5093786;28;20229;-75
2021/08/15 07:16:05;;;;;;;8.87;7.00;;;24.70;57.70;;;;;;5094416;28;20670;-74
2021/08/15 07:18:34;;;;;;;9.97;7.07;;;24.70;57.60;;;;;;5109834;27;20192;-75
2021/08/15 07:21:04;;;;;;;9.63;7.43;;;24.70;57.40;;;;;;5106520;27;20311;-71
2021/08/15 07:23:35;;;;;;;8.43;6.10;;;24.70;57.30;;;;;;5110692;28;20215;-70
2021/08/15 07:26:06;;;;;;;9.30;7.03;;;24.70;57.00;;;;;;5097673;28;20235;-70
2021/08/15 07:28:36;;;;;;;10.57;6.83;;;24.70;56.90;;;;;;5110528;28;20209;-71
2021/08/15 07:31:06;;;;;;;10.07;6.40;;;24.70;56.70;;;;;;5110614;27;20227;-72
2021/08/15 07:33:36;;;;;;;11.63;7.63;;;24.80;56.70;;;;;;5109154;28;20466;-72
2021/08/15 07:36:13;;;;;;;9.97;6.60;;;24.80;56.60;;;;;;5092380;28;20215;-68
2021/08/15 07:38:41;;;;;;;11.80;6.10;;;24.80;56.60;;;;;;5110360;27;20214;-77
2021/08/15 07:41:10;;;;;;;7.80;5.93;;;24.80;56.50;;;;;;5109961;27;20215;-69
2021/08/15 07:43:40;;;;;;;13.30;6.50;;;24.90;56.80;;;;;;5093281;27;20203;-71
2021/08/15 07:46:13;;;;;;;10.50;7.07;;;24.90;56.70;;;;;;5112266;27;20224;-68
2021/08/15 07:48:44;;;;;;;9.87;6.20;;;24.90;56.30;;;;;;5112270;27;20205;-71
2021/08/15 07:51:15;;;;;;;8.37;6.03;;;24.90;56.20;;;;;;5107730;27;20308;-71
2021/08/15 07:53:46;;;;;;;9.07;5.73;;;25.00;56.50;;;;;;5110615;27;20215;-70
2021/08/15 07:56:16;;;;;;;7.00;5.67;;;25.00;56.20;;;;;;5109528;27;20203;-70
2021/08/15 07:58:45;;;;;;;8.63;6.07;;;25.00;56.00;;;;;;5089647;28;20201;-70
2021/08/15 08:01:17;;;;;;;7.77;5.73;;;25.00;55.80;;;;;;5109485;27;20272;-69
2021/08/15 08:03:49;;;;;;;8.20;5.50;;;25.00;55.60;;;;;;5114566;27;20196;-71
2021/08/15 08:06:20;;;;;;;7.27;5.53;;;25.00;55.80;;;;;;5108252;27;20245;-71
2021/08/15 08:08:52;;;;;;;16.57;7.20;;;25.10;55.60;;;;;;5111098;27;20204;-68
2021/08/15 08:11:23;;;;;;;20.83;7.00;;;25.10;55.60;;;;;;5101602;27;20294;-71
2021/08/15 08:13:54;;;;;;;13.03;6.40;;;25.20;55.40;;;;;;5086082;28;20241;-72
2021/08/15 08:16:26;;;;;;;17.73;6.57;;;25.20;54.60;;;;;;5086893;28;20282;-68
2021/08/15 08:18:58;;;;;;;10.77;6.10;;;25.20;54.70;;;;;;5083523;28;20318;-70
2021/08/15 08:21:28;;;;;;;10.00;5.63;;;25.20;54.50;;;;;;5086879;28;20251;-69
2021/08/15 08:24:10;;;;;;;10.13;5.47;;;25.20;54.40;;;;;;5083290;28;20217;-69
2021/08/15 08:26:41;;;;;;;10.60;5.83;;;25.20;54.50;;;;;;5086011;28;20208;-70
2021/08/15 08:29:16;;;;;;;8.23;5.47;;;25.20;54.80;;;;;;5086682;28;20570;-71
2021/08/15 08:31:58;;;;;;;8.57;5.60;;;25.20;54.80;;;;;;5087918;28;20188;-70
2021/08/15 08:34:29;;;;;;;7.23;4.87;;;25.20;54.70;;;;;;5081773;28;20225;-70
2021/08/15 08:36:58;;;;;;;6.80;4.80;;;25.20;54.60;;;;;;5087426;28;20201;-70
2021/08/15 08:39:29;;;;;;;8.13;4.87;;;25.20;54.40;;;;;;5088322;28;20627;-70
2021/08/15 08:42:03;;;;;;;5.23;4.50;;;25.20;54.70;;;;;;5090794;28;20239;-72
2021/08/15 08:44:34;;;;;;;7.90;4.73;;;25.20;54.60;;;;;;5090946;28;20278;-74
2021/08/15 08:47:10;;;;;;;6.93;4.73;;;25.20;54.60;;;;;;5087420;28;20300;-74
2021/08/15 08:49:41;;;;;;;7.03;4.80;;;25.20;54.50;;;;;;5088628;28;20213;-73
2021/08/15 08:52:10;;;;;;;7.40;4.93;;;25.20;54.60;;;;;;5070319;28;20889;-74
2021/08/15 08:54:42;;;;;;;6.90;4.77;;;25.20;54.80;;;;;;5088819;28;20219;-72
2021/08/15 08:57:13;;;;;;;9.17;4.57;;;25.20;55.00;;;;;;5087951;28;20205;-71
2021/08/15 08:59:42;;;;;;;8.07;4.33;;;25.20;55.00;;;;;;5089349;28;20967;-71
2021/08/15 09:02:26;;;;;;;8.07;4.20;;;25.20;54.60;;;;;;5089379;28;20287;-71
2021/08/15 09:04:56;;;;;;;8.53;4.57;;;25.20;54.30;;;;;;5090532;28;21125;-71
2021/08/15 09:07:34;;;;;;;6.87;3.90;;;25.20;54.50;;;;;;5088842;28;20209;-72
2021/08/15 09:10:14;;;;;;;7.33;4.50;;;25.20;54.70;;;;;;5116904;27;20249;-71
2021/08/15 09:12:51;;;;;;;5.37;4.10;;;25.20;54.30;;;;;;5085328;28;20213;-71
2021/08/15 09:15:22;;;;;;;5.60;3.90;;;25.20;54.00;;;;;;5088053;28;20606;-71
2021/08/15 09:17:54;;;;;;;6.97;3.73;;;25.20;54.10;;;;;;5084853;28;20216;-71
2021/08/15 09:20:47;;;;;;;6.60;3.83;;;25.20;54.10;;;;;;5088371;28;20204;-71
2021/08/15 09:23:26;;;;;;;9.67;4.10;;;25.20;54.60;;;;;;5085898;28;20188;-72
2021/08/15 09:26:12;;;;;;;8.17;4.10;;;25.10;54.40;;;;;;5086723;28;20219;-72
2021/08/15 09:28:42;;;;;;;9.03;4.47;;;25.20;54.40;;;;;;5087396;28;20965;-72
2021/08/15 09:31:25;;;;;;;6.87;4.30;;;25.20;54.40;;;;;;5086331;28;20521;-72
2021/08/15 09:33:58;;;;;;;6.00;4.30;;;25.20;54.30;;;;;;5089519;28;20689;-71
2021/08/15 09:36:31;;;;;;;6.70;4.00;;;25.20;54.10;;;;;;5086278;28;20209;-71
2021/08/15 09:39:07;;;;;;;7.70;3.90;;;25.20;54.40;;;;;;5084921;28;20221;-71
2021/08/15 09:41:48;;;;;;;5.93;4.17;;;25.20;54.30;;;;;;5085821;28;20312;-72
2021/08/15 09:44:26;;;;;;;5.27;3.80;;;25.30;54.20;;;;;;5084238;28;20683;-72
2021/08/15 09:47:14;;;;;;;7.17;3.77;;;25.30;53.90;;;;;;5087035;28;20201;-72
2021/08/15 09:49:48;;;;;;;5.83;3.83;;;25.30;54.00;;;;;;5089385;28;20315;-72
2021/08/15 09:52:19;;;;;;;5.77;3.70;;;25.30;54.10;;;;;;5086470;28;20197;-72
2021/08/15 09:54:54;;;;;;;4.57;3.43;;;25.30;54.20;;;;;;5088091;28;20213;-72
2021/08/15 09:57:36;;;;;;;11.37;4.20;;;25.30;53.80;;;;;;5084841;28;20289;-72
2021/08/15 10:00:23;;;;;;;24.43;3.60;;;25.40;53.70;;;;;;5068932;28;20201;-72
2021/08/15 10:02:53;;;;;;;5.13;3.67;;;25.30;53.70;;;;;;5105138;28;20192;-72
2021/08/15 10:05:23;;;;;;;6.30;3.60;;;25.40;54.10;;;;;;5086590;28;20675;-72
2021/08/15 10:07:56;;;;;;;6.97;4.00;;;25.40;53.70;;;;;;5089699;28;20578;-71
2021/08/15 10:10:32;;;;;;;5.40;3.27;;;25.40;53.70;;;;;;5085565;28;20201;-72
2021/08/15 10:13:07;;;;;;;5.77;3.57;;;25.40;53.90;;;;;;5085640;28;20212;-72
2021/08/15 10:15:39;;;;;;;4.80;3.33;;;25.40;53.70;;;;;;5104079;28;20706;-72
2021/08/15 10:18:16;;;;;;;7.57;3.50;;;25.40;53.60;;;;;;5100622;28;20320;-71
2021/08/15 10:20:45;;;;;;;4.70;3.10;;;25.40;53.50;;;;;;5090371;28;20871;-73
2021/08/15 10:23:14;;;;;;;6.00;3.53;;;25.40;53.40;;;;;;5092952;28;20235;-72
2021/08/15 10:25:44;;;;;;;7.73;4.17;;;25.50;53.70;;;;;;5108562;28;20915;-72
2021/08/15 10:28:40;;;;;;;5.53;3.20;;;25.50;54.40;;;;;;5094065;28;20204;-72
2021/08/15 10:31:09;;;;;;;4.23;3.10;;;25.50;53.70;;;;;;5106955;28;20219;-72
2021/08/15 10:33:54;;;;;;;5.80;3.30;;;25.50;53.30;;;;;;5107041;28;20870;-72
2021/08/15 10:36:31;;;;;;;6.83;3.13;;;25.50;53.40;;;;;;5097709;28;20195;-72
2021/08/15 10:39:06;;;;;;;6.03;3.37;;;25.50;53.40;;;;;;5108619;28;20625;-72
2021/08/15 10:41:50;;;;;;;4.03;2.93;;;25.50;53.60;;;;;;5090938;28;20192;-73
2021/08/15 10:44:19;;;;;;;5.33;3.37;;;25.60;53.50;;;;;;5090116;28;20572;-73
2021/08/15 10:47:23;;;;;;;7.57;3.03;;;25.60;53.00;;;;;;5083427;28;20202;-73
2021/08/15 10:49:57;;;;;;;6.37;3.60;;;25.60;53.00;;;;;;5039133;28;20224;-73
2021/08/15 10:52:43;;;;;;;5.67;3.20;;;25.60;53.00;;;;;;5112025;27;20200;-73
2021/08/15 10:55:19;;;;;;;6.80;3.10;;;25.70;53.50;;;;;;5120813;27;20271;-73
2021/08/15 10:57:53;;;;;;;4.03;3.07;;;25.70;54.10;;;;;;5112124;27;20649;-73
2021/08/15 11:00:36;;;;;;;4.53;3.20;;;25.70;53.60;;;;;;5118574;27;20212;-71
2021/08/15 11:03:18;;;;;;;6.23;3.47;;;25.70;53.10;;;;;;5114000;27;20665;-73
2021/08/15 11:05:51;;;;;;;4.60;3.30;;;25.80;52.40;;;;;;5125994;27;20215;-71
2021/08/15 11:08:45;;;;;;;4.73;2.80;;;25.80;52.80;;;;;;5094037;27;20200;-73
2021/08/15 11:11:16;;;;;;;5.00;3.40;;;25.80;52.60;;;;;;5113169;27;20207;-69
2021/08/15 11:13:43;;;;;;;5.97;3.70;;;25.80;52.50;;;;;;5094923;27;20220;-72
2021/08/15 11:16:28;;;;;;;4.60;3.33;;;25.90;52.40;;;;;;5094817;28;20709;-71
2021/08/15 11:19:14;;;;;;;6.17;3.33;;;25.90;52.30;;;;;;5111990;28;20184;-70
2021/08/15 11:22:06;;;;;;;4.73;3.20;;;25.90;52.00;;;;;;5113939;27;20196;-74
2021/08/15 11:24:52;;;;;;;6.13;3.50;;;25.90;51.30;;;;;;5114454;27;20199;-72
2021/08/15 11:27:31;;;;;;;3.97;3.13;;;25.90;51.60;;;;;;5102698;27;20648;-73
2021/08/15 11:30:22;;;;;;;5.90;2.80;;;25.90;51.80;;;;;;5111439;27;20698;-73
2021/08/15 11:33:00;;;;;;;4.27;3.00;;;26.00;51.10;;;;;;5086025;28;20208;-73
2021/08/15 11:35:46;;;;;;;5.17;3.20;;;26.00;50.70;;;;;;5110208;27;20211;-73
2021/08/15 11:38:18;;;;;;;10.33;3.10;;;26.00;50.80;;;;;;5120984;27;20214;-73
2021/08/15 11:41:09;;;;;;;5.60;3.27;;;26.10;50.50;;;;;;5108517;27;20336;-74
2021/08/15 11:43:38;;;;;;;4.63;3.20;;;26.10;51.20;;;;;;5088691;27;20205;-73
2021/08/15 11:46:10;;;;;;;6.77;3.50;;;26.10;51.10;;;;;;5111188;27;20196;-73
2021/08/15 11:48:42;;;;;;;10.23;3.30;;;26.10;51.30;;;;;;5120577;27;20206;-73
2021/08/15 11:51:10;;;;;;;5.77;3.37;;;26.10;50.60;;;;;;5114623;27;20236;-74
2021/08/15 11:53:47;;;;;;;3.43;3.00;;;26.20;51.00;;;;;;5112744;27;20204;-73
2021/08/15 11:56:18;;;;;;;5.93;3.17;;;26.20;50.50;;;;;;5099767;27;20690;-73
2021/08/15 11:59:04;;;;;;;4.03;3.20;;;26.20;50.30;;;;;;5079143;27;20207;-73
2021/08/15 12:01:34;;;;;;;4.73;3.20;;;26.30;49.70;;;;;;5098182;27;20195;-73
2021/08/15 12:04:07;;;;;;;7.40;3.00;;;26.30;49.70;;;;;;5108736;27;20245;-73
2021/08/15 12:06:40;;;;;;;4.27;2.90;;;26.30;49.40;;;;;;5111073;28;20213;-73
2021/08/15 12:09:27;;;;;;;5.47;3.30;;;26.30;49.20;;;;;;5090162;28;20299;-73
2021/08/15 12:11:58;;;;;;;4.37;3.50;;;26.40;49.40;;;;;;5103698;27;20224;-73
2021/08/15 12:14:37;;;;;;;3.87;2.90;;;26.40;49.30;;;;;;5090291;28;20244;-73
2021/08/15 12:17:10;;;;;;;3.27;2.63;;;26.40;49.70;;;;;;5081642;28;20303;-73
2021/08/15 12:19:42;;;;;;;3.63;3.00;;;26.40;48.50;;;;;;5093118;28;20626;-73
2021/08/15 12:22:19;;;;;;;5.30;3.20;;;26.40;48.90;;;;;;5099809;28;20628;-73
2021/08/15 12:24:55;;;;;;;5.43;2.87;;;26.50;48.70;;;;;;5091150;28;20932;-73
2021/08/15 12:27:27;;;;;;;4.10;2.80;;;26.50;49.50;;;;;;5089698;28;20208;-74
2021/08/15 12:30:01;;;;;;;4.27;2.80;;;26.50;48.50;;;;;;5090768;28;20201;-74
2021/08/15 12:32:33;;;;;;;5.90;3.60;;;26.50;48.90;;;;;;5098821;28;20201;-73
2021/08/15 12:35:07;;;;;;;3.77;2.70;;;26.50;47.90;;;;;;5079906;28;20205;-73
2021/08/15 12:37:47;;;;;;;3.70;2.90;;;26.50;47.50;;;;;;5095408;28;20208;-73
2021/08/15 12:40:33;;;;;;;4.83;3.17;;;26.50;49.10;;;;;;5096192;28;20207;-73
2021/08/15 12:43:10;;;;;;;5.63;3.10;;;26.50;48.20;;;;;;5090297;28;20185;-73
2021/08/15 12:45:40;;;;;;;10.87;3.47;;;26.50;47.40;;;;;;5077244;28;20200;-71
2021/08/15 12:48:10;;;;;;;11.73;2.97;;;26.50;47.50;;;;;;5089224;28;20617;-67
2021/08/15 12:50:39;;;;;;;6.53;3.03;;;26.60;48.80;;;;;;5080424;28;20213;-71
2021/08/15 12:53:22;;;;;;;4.60;3.40;;;26.60;49.00;;;;;;5090427;28;20446;-72
2021/08/15 12:55:53;;;;;;;4.60;3.33;;;26.70;49.00;;;;;;5089880;28;20224;-72
2021/08/15 12:58:25;;;;;;;4.37;3.07;;;26.70;49.50;;;;;;5088870;28;20196;-70
2021/08/15 13:01:00;;;;;;;3.97;3.10;;;26.70;49.30;;;;;;5095605;28;20708;-71
2021/08/15 13:03:32;;;;;;;5.23;2.77;;;26.80;49.50;;;;;;5091514;28;20801;-72
2021/08/15 13:06:03;;;;;;;4.27;3.17;;;26.90;49.10;;;;;;5086117;28;20200;-76
2021/08/15 13:08:35;;;;;;;5.13;3.20;;;26.90;48.90;;;;;;5106092;27;20227;-76
2021/08/15 13:11:07;;;;;;;3.73;3.00;;;27.00;50.30;;;;;;5095100;28;20216;-74